TFM - Tactical Decision Aid (Experimental) INFO Settings
ID: Runway Winds: CIG/VIS Threshold: METAR Board: Map:

KHBG - Hattiesburg-Bobby Chain Muni

Updated at: 1749 UTC 21 Oct 2017
Latest TAF at: 1720 UTC 21 Oct 2017

TAF Board

Time1653Z21/18Z21/19Z21/20Z21/21Z21/22Z21/23Z22/00Z22/01Z22/02Z22/03Z22/04Z22/05Z22/06Z
TypeOBSPRVLPRVLPRVLPRVLPRVLPRVLPRVLPRVLPRVLPRVLPRVLPRVLPRVL
VIS10>6>6>6>6>6>6>6>6>6>6>6>6>6
CIG--50505050505050505050505050
CoverCLRBKNBKNBKNBKNBKNBKNBKNBKNBKNBKNBKNBKNBKN
FltCatVFRVFRVFRVFRVFRVFRVFRVFRVFRVFRVFRVFRVFRVFR
WX--VCTSVCTSVCTSVCTSVCTSVCTS--------------
WDir110130130130130130130140140140140140140140
WSpd89999996666666
WGst----------------------------
TAF
KHBG 211720Z 2118/2218 13009KT P6SM VCTS BKN050CB
  FM220000 14006KT P6SM BKN050
  FM220900 12004KT 5SM BR BKN025
  FM221100 11005KT 3SM BR BKN015
  FM221300 11006KT 5SM BR VCTS BKN015CB OVC025
  FM221400 12007KT P6SM VCTS BKN015CB


METAR Board

Time21/06Z 21/07Z 21/08Z 21/09Z 21/10Z 21/11Z 21/12Z 21/13Z 21/14Z 21/15Z 21/16Z 21/17Z
VIS10 10 10 10 10 10 10 10 10 10 10 10
CIG-- -- -- -- -- -- -- -- -- -- -- --
CoverFEWCLRSCTCLRFEWFEWCLRCLRCLRCLRCLRCLR
FltCatVFRVFRVFRVFRVFRVFRVFRVFRVFRVFRVFRVFR
WX------------------------
WDir000300000013080110110
WSpd0 0 0 4 0 0 0 0 4 5 8 8
WGst-- -- -- -- -- -- -- -- -- -- -- --
METAR
KHBG 210553Z AUTO 00000KT 10SM FEW038 18/18 A3011 RMK AO2 SLP191 T01780178 10222 20178 402720122 58002
KHBG 210653Z AUTO 00000KT 10SM CLR 17/17 A3011 RMK AO2 SLP191 T01720172
KHBG 210753Z AUTO 00000KT 10SM SCT035 17/17 A3009 RMK AO2 SLP186 T01670167
KHBG 210853Z AUTO 30004KT 10SM CLR 16/16 A3008 RMK AO2 SLP184 T01610161 58007
KHBG 210953Z AUTO 00000KT 10SM FEW090 16/16 A3008 RMK AO2 SLP184 T01610161
KHBG 211053Z AUTO 00000KT 10SM FEW027 16/16 A3010 RMK AO2 SLP190 T01610161
KHBG 211153Z AUTO 00000KT 10SM CLR 16/16 A3010 RMK AO2 SLP192 T01610161 10178 20156 53007
KHBG 211253Z AUTO 00000KT 10SM CLR 17/17 A3012 RMK AO2 SLP196 T01670167
KHBG 211353Z AUTO 13004KT 10SM CLR 18/17 A3014 RMK AO2 SLP202 T01830172
KHBG 211453Z AUTO 08005KT 10SM CLR 21/19 A3015 RMK AO2 SLP207 T02110189 52015
KHBG 211553Z AUTO 11008KT 10SM CLR 24/21 A3014 RMK AO2 SLP204 T02390206
KHBG 211653Z AUTO 11008KT 10SM CLR 25/21 A3013 RMK AO2 SLP199 T02500211

TAF/METAR Board Legend

Potential Impact
  None Marginal Slight Moderate High
Visibility (sm) >5 3≤X≤5 2≤X<3 0.75≤X<2 <0.75
Ceiling (100 ft) >30 10≤X≤30 8≤X<10 2≤X<8 <2
Wind Speed (kt) <10 10≤X<20 20≤X<30 ≥30
Wind Gust (kt) <15 15≤X<25 25≤X<35 ≥35
Weather No Wx Reported VCTS -TS,-FZRA TS,FZRA +TS,+FZRA